sensor_id;sensor_type;location;lat;lon;timestamp;P1;durP1;ratioP1;P2;durP2;ratioP2
7029;SDS011;3556;53.500;10.176;2024-01-11T00:01:19;44.50;;;14.67;;
7029;SDS011;3556;53.500;10.176;2024-01-11T00:03:44;49.90;;;15.07;;
7029;SDS011;3556;53.500;10.176;2024-01-11T00:06:10;40.20;;;14.33;;
7029;SDS011;3556;53.500;10.176;2024-01-11T00:08:36;45.57;;;17.20;;
7029;SDS011;3556;53.500;10.176;2024-01-11T00:11:01;40.30;;;14.40;;
7029;SDS011;3556;53.500;10.176;2024-01-11T00:13:28;45.50;;;15.43;;
7029;SDS011;3556;53.500;10.176;2024-01-11T00:15:54;43.80;;;15.50;;
7029;SDS011;3556;53.500;10.176;2024-01-11T00:18:19;42.77;;;14.93;;
7029;SDS011;3556;53.500;10.176;2024-01-11T00:20:45;49.53;;;15.50;;
7029;SDS011;3556;53.500;10.176;2024-01-11T00:23:11;48.13;;;14.97;;
7029;SDS011;3556;53.500;10.176;2024-01-11T00:25:36;46.83;;;16.30;;
7029;SDS011;3556;53.500;10.176;2024-01-11T00:28:02;47.00;;;15.50;;
7029;SDS011;3556;53.500;10.176;2024-01-11T00:30:28;48.67;;;15.23;;
7029;SDS011;3556;53.500;10.176;2024-01-11T00:32:54;47.90;;;15.73;;
7029;SDS011;3556;53.500;10.176;2024-01-11T00:35:20;43.47;;;15.53;;
7029;SDS011;3556;53.500;10.176;2024-01-11T00:37:45;49.70;;;15.90;;
7029;SDS011;3556;53.500;10.176;2024-01-11T00:40:11;49.43;;;15.23;;
7029;SDS011;3556;53.500;10.176;2024-01-11T00:42:37;48.37;;;14.83;;
7029;SDS011;3556;53.500;10.176;2024-01-11T00:45:02;44.90;;;15.23;;
7029;SDS011;3556;53.500;10.176;2024-01-11T00:47:29;46.70;;;15.63;;
7029;SDS011;3556;53.500;10.176;2024-01-11T00:49:54;52.57;;;16.93;;
7029;SDS011;3556;53.500;10.176;2024-01-11T00:52:20;57.13;;;16.23;;
7029;SDS011;3556;53.500;10.176;2024-01-11T00:54:46;48.63;;;15.30;;
7029;SDS011;3556;53.500;10.176;2024-01-11T00:57:12;47.13;;;15.80;;
7029;SDS011;3556;53.500;10.176;2024-01-11T00:59:37;56.23;;;17.17;;
7029;SDS011;3556;53.500;10.176;2024-01-11T01:02:05;56.17;;;18.27;;
7029;SDS011;3556;53.500;10.176;2024-01-11T01:04:30;69.33;;;19.60;;
7029;SDS011;3556;53.500;10.176;2024-01-11T01:06:56;62.23;;;19.97;;
7029;SDS011;3556;53.500;10.176;2024-01-11T01:09:22;61.60;;;20.30;;
7029;SDS011;3556;53.500;10.176;2024-01-11T01:11:48;64.83;;;18.30;;
7029;SDS011;3556;53.500;10.176;2024-01-11T01:14:13;60.37;;;19.40;;
7029;SDS011;3556;53.500;10.176;2024-01-11T01:16:39;61.50;;;18.93;;
7029;SDS011;3556;53.500;10.176;2024-01-11T01:19:05;66.97;;;20.60;;
7029;SDS011;3556;53.500;10.176;2024-01-11T01:21:30;64.50;;;19.87;;
7029;SDS011;3556;53.500;10.176;2024-01-11T01:23:56;59.07;;;19.70;;
7029;SDS011;3556;53.500;10.176;2024-01-11T01:26:21;63.60;;;20.60;;
7029;SDS011;3556;53.500;10.176;2024-01-11T01:28:47;65.23;;;19.47;;
7029;SDS011;3556;53.500;10.176;2024-01-11T01:31:13;63.70;;;19.27;;
7029;SDS011;3556;53.500;10.176;2024-01-11T01:33:39;50.80;;;17.73;;
7029;SDS011;3556;53.500;10.176;2024-01-11T01:36:07;70.17;;;18.67;;
7029;SDS011;3556;53.500;10.176;2024-01-11T01:38:34;54.73;;;17.57;;
7029;SDS011;3556;53.500;10.176;2024-01-11T01:41:00;51.23;;;17.83;;
7029;SDS011;3556;53.500;10.176;2024-01-11T01:43:25;50.73;;;15.37;;
7029;SDS011;3556;53.500;10.176;2024-01-11T01:45:51;72.60;;;19.40;;
7029;SDS011;3556;53.500;10.176;2024-01-11T01:48:17;70.30;;;19.93;;
7029;SDS011;3556;53.500;10.176;2024-01-11T01:50:43;54.03;;;17.90;;
7029;SDS011;3556;53.500;10.176;2024-01-11T01:53:15;67.80;;;20.40;;
7029;SDS011;3556;53.500;10.176;2024-01-11T01:55:48;57.10;;;17.90;;
7029;SDS011;3556;53.500;10.176;2024-01-11T01:58:14;55.23;;;17.10;;
7029;SDS011;3556;53.500;10.176;2024-01-11T02:00:43;57.73;;;16.90;;
7029;SDS011;3556;53.500;10.176;2024-01-11T02:03:09;67.73;;;19.17;;
7029;SDS011;3556;53.500;10.176;2024-01-11T02:05:35;58.73;;;18.80;;
7029;SDS011;3556;53.500;10.176;2024-01-11T02:08:03;63.50;;;20.57;;
7029;SDS011;3556;53.500;10.176;2024-01-11T02:10:33;62.47;;;19.60;;
7029;SDS011;3556;53.500;10.176;2024-01-11T02:13:00;60.03;;;18.40;;
7029;SDS011;3556;53.500;10.176;2024-01-11T02:15:26;68.23;;;21.27;;
7029;SDS011;3556;53.500;10.176;2024-01-11T02:17:52;73.70;;;20.97;;
7029;SDS011;3556;53.500;10.176;2024-01-11T02:20:17;61.17;;;21.67;;
7029;SDS011;3556;53.500;10.176;2024-01-11T02:22:46;62.47;;;21.00;;
7029;SDS011;3556;53.500;10.176;2024-01-11T02:25:15;63.43;;;19.70;;
7029;SDS011;3556;53.500;10.176;2024-01-11T02:27:47;72.57;;;21.30;;
7029;SDS011;3556;53.500;10.176;2024-01-11T02:30:13;72.50;;;21.57;;
7029;SDS011;3556;53.500;10.176;2024-01-11T02:32:39;63.37;;;19.10;;
7029;SDS011;3556;53.500;10.176;2024-01-11T02:35:05;64.23;;;20.50;;
7029;SDS011;3556;53.500;10.176;2024-01-11T02:37:31;64.73;;;21.23;;
7029;SDS011;3556;53.500;10.176;2024-01-11T02:39:57;59.03;;;20.30;;
7029;SDS011;3556;53.500;10.176;2024-01-11T02:42:23;65.30;;;22.00;;
7029;SDS011;3556;53.500;10.176;2024-01-11T02:44:49;58.40;;;20.90;;
7029;SDS011;3556;53.500;10.176;2024-01-11T02:47:14;64.93;;;21.77;;
7029;SDS011;3556;53.500;10.176;2024-01-11T02:49:40;57.00;;;18.97;;
7029;SDS011;3556;53.500;10.176;2024-01-11T02:52:05;40.87;;;13.83;;
7029;SDS011;3556;53.500;10.176;2024-01-11T02:54:31;41.13;;;13.00;;
7029;SDS011;3556;53.500;10.176;2024-01-11T02:56:57;41.50;;;13.37;;
7029;SDS011;3556;53.500;10.176;2024-01-11T02:59:22;45.77;;;12.90;;
7029;SDS011;3556;53.500;10.176;2024-01-11T03:01:49;38.53;;;11.73;;
7029;SDS011;3556;53.500;10.176;2024-01-11T03:04:14;47.43;;;11.83;;
7029;SDS011;3556;53.500;10.176;2024-01-11T03:06:40;37.83;;;13.40;;
7029;SDS011;3556;53.500;10.176;2024-01-11T03:09:06;40.93;;;13.10;;
7029;SDS011;3556;53.500;10.176;2024-01-11T03:11:31;43.40;;;13.73;;
7029;SDS011;3556;53.500;10.176;2024-01-11T03:13:57;40.60;;;13.37;;
7029;SDS011;3556;53.500;10.176;2024-01-11T03:16:23;44.07;;;13.60;;
7029;SDS011;3556;53.500;10.176;2024-01-11T03:18:48;39.27;;;12.20;;
7029;SDS011;3556;53.500;10.176;2024-01-11T03:21:14;44.53;;;13.60;;
7029;SDS011;3556;53.500;10.176;2024-01-11T03:23:39;42.27;;;14.33;;
7029;SDS011;3556;53.500;10.176;2024-01-11T03:26:11;56.90;;;15.13;;
7029;SDS011;3556;53.500;10.176;2024-01-11T03:28:43;45.90;;;14.00;;
7029;SDS011;3556;53.500;10.176;2024-01-11T03:31:12;51.63;;;15.70;;
7029;SDS011;3556;53.500;10.176;2024-01-11T03:33:37;47.30;;;14.40;;
7029;SDS011;3556;53.500;10.176;2024-01-11T03:36:06;46.70;;;13.70;;
7029;SDS011;3556;53.500;10.176;2024-01-11T03:38:33;51.47;;;15.87;;
7029;SDS011;3556;53.500;10.176;2024-01-11T03:40:59;55.67;;;16.33;;
7029;SDS011;3556;53.500;10.176;2024-01-11T03:43:25;50.63;;;15.23;;
7029;SDS011;3556;53.500;10.176;2024-01-11T03:45:50;60.60;;;16.87;;
7029;SDS011;3556;53.500;10.176;2024-01-11T03:48:16;59.70;;;15.63;;
7029;SDS011;3556;53.500;10.176;2024-01-11T03:50:41;54.77;;;16.47;;
7029;SDS011;3556;53.500;10.176;2024-01-11T03:53:07;56.20;;;16.07;;
7029;SDS011;3556;53.500;10.176;2024-01-11T03:55:33;50.00;;;15.90;;
7029;SDS011;3556;53.500;10.176;2024-01-11T03:57:58;58.40;;;15.00;;
7029;SDS011;3556;53.500;10.176;2024-01-11T04:00:24;62.10;;;17.20;;
7029;SDS011;3556;53.500;10.176;2024-01-11T04:02:50;58.63;;;17.57;;
7029;SDS011;3556;53.500;10.176;2024-01-11T04:05:15;57.57;;;16.30;;
7029;SDS011;3556;53.500;10.176;2024-01-11T04:07:41;60.00;;;16.17;;
7029;SDS011;3556;53.500;10.176;2024-01-11T04:10:07;61.80;;;17.07;;
7029;SDS011;3556;53.500;10.176;2024-01-11T04:12:35;58.57;;;16.70;;
7029;SDS011;3556;53.500;10.176;2024-01-11T04:15:01;58.57;;;16.97;;
7029;SDS011;3556;53.500;10.176;2024-01-11T04:17:27;57.20;;;16.93;;
7029;SDS011;3556;53.500;10.176;2024-01-11T04:19:53;54.53;;;15.57;;
7029;SDS011;3556;53.500;10.176;2024-01-11T04:22:18;46.57;;;14.90;;
7029;SDS011;3556;53.500;10.176;2024-01-11T04:24:44;47.67;;;15.07;;
7029;SDS011;3556;53.500;10.176;2024-01-11T04:27:10;61.67;;;16.50;;
7029;SDS011;3556;53.500;10.176;2024-01-11T04:29:35;53.03;;;16.70;;
7029;SDS011;3556;53.500;10.176;2024-01-11T04:32:01;55.37;;;15.43;;
7029;SDS011;3556;53.500;10.176;2024-01-11T04:34:27;56.00;;;16.17;;
7029;SDS011;3556;53.500;10.176;2024-01-11T04:36:52;62.43;;;16.63;;
7029;SDS011;3556;53.500;10.176;2024-01-11T04:39:18;69.73;;;17.90;;
7029;SDS011;3556;53.500;10.176;2024-01-11T04:41:44;55.53;;;15.23;;
7029;SDS011;3556;53.500;10.176;2024-01-11T04:44:09;59.77;;;16.37;;
7029;SDS011;3556;53.500;10.176;2024-01-11T04:46:35;61.27;;;18.40;;
7029;SDS011;3556;53.500;10.176;2024-01-11T04:49:01;55.50;;;15.80;;
7029;SDS011;3556;53.500;10.176;2024-01-11T04:51:26;60.67;;;16.03;;
7029;SDS011;3556;53.500;10.176;2024-01-11T04:53:52;61.13;;;15.60;;
7029;SDS011;3556;53.500;10.176;2024-01-11T04:56:17;61.00;;;16.80;;
7029;SDS011;3556;53.500;10.176;2024-01-11T04:58:44;59.57;;;17.03;;
7029;SDS011;3556;53.500;10.176;2024-01-11T05:01:16;61.70;;;17.30;;
7029;SDS011;3556;53.500;10.176;2024-01-11T05:03:43;60.73;;;17.27;;
7029;SDS011;3556;53.500;10.176;2024-01-11T05:06:19;64.20;;;16.13;;
7029;SDS011;3556;53.500;10.176;2024-01-11T05:08:47;65.60;;;18.13;;
7029;SDS011;3556;53.500;10.176;2024-01-11T05:11:17;64.20;;;18.57;;
7029;SDS011;3556;53.500;10.176;2024-01-11T05:13:43;69.30;;;18.03;;
7029;SDS011;3556;53.500;10.176;2024-01-11T05:16:22;77.77;;;21.30;;
7029;SDS011;3556;53.500;10.176;2024-01-11T05:18:49;78.43;;;20.77;;
7029;SDS011;3556;53.500;10.176;2024-01-11T05:21:16;75.57;;;19.93;;
7029;SDS011;3556;53.500;10.176;2024-01-11T05:23:41;78.57;;;21.27;;
7029;SDS011;3556;53.500;10.176;2024-01-11T05:26:08;85.70;;;21.97;;
7029;SDS011;3556;53.500;10.176;2024-01-11T05:28:34;88.57;;;23.23;;
7029;SDS011;3556;53.500;10.176;2024-01-11T05:30:59;89.80;;;22.20;;
7029;SDS011;3556;53.500;10.176;2024-01-11T05:33:25;86.17;;;22.50;;
7029;SDS011;3556;53.500;10.176;2024-01-11T05:35:51;88.13;;;22.47;;
7029;SDS011;3556;53.500;10.176;2024-01-11T05:38:18;93.63;;;23.87;;
7029;SDS011;3556;53.500;10.176;2024-01-11T05:40:44;80.83;;;21.27;;
7029;SDS011;3556;53.500;10.176;2024-01-11T05:43:10;73.83;;;21.57;;
7029;SDS011;3556;53.500;10.176;2024-01-11T05:45:36;91.57;;;22.10;;
7029;SDS011;3556;53.500;10.176;2024-01-11T05:48:01;84.13;;;21.47;;
7029;SDS011;3556;53.500;10.176;2024-01-11T05:50:27;85.47;;;22.90;;
7029;SDS011;3556;53.500;10.176;2024-01-11T05:52:52;76.23;;;20.30;;
7029;SDS011;3556;53.500;10.176;2024-01-11T05:55:21;79.53;;;21.47;;
7029;SDS011;3556;53.500;10.176;2024-01-11T05:57:47;90.77;;;23.10;;
7029;SDS011;3556;53.500;10.176;2024-01-11T06:00:13;82.57;;;20.80;;
7029;SDS011;3556;53.500;10.176;2024-01-11T06:02:39;74.40;;;19.70;;
7029;SDS011;3556;53.500;10.176;2024-01-11T06:05:07;68.97;;;19.63;;
7029;SDS011;3556;53.500;10.176;2024-01-11T06:07:34;68.77;;;19.30;;
7029;SDS011;3556;53.500;10.176;2024-01-11T06:10:00;78.37;;;20.63;;
7029;SDS011;3556;53.500;10.176;2024-01-11T06:12:27;72.77;;;19.90;;
7029;SDS011;3556;53.500;10.176;2024-01-11T06:14:53;68.27;;;18.87;;
7029;SDS011;3556;53.500;10.176;2024-01-11T06:17:19;81.10;;;21.20;;
7029;SDS011;3556;53.500;10.176;2024-01-11T06:19:44;73.73;;;19.33;;
7029;SDS011;3556;53.500;10.176;2024-01-11T06:22:10;68.17;;;19.17;;
7029;SDS011;3556;53.500;10.176;2024-01-11T06:24:36;63.87;;;19.60;;
7029;SDS011;3556;53.500;10.176;2024-01-11T06:27:01;72.70;;;20.50;;
7029;SDS011;3556;53.500;10.176;2024-01-11T06:29:27;67.80;;;19.67;;
7029;SDS011;3556;53.500;10.176;2024-01-11T06:31:53;72.40;;;20.90;;
7029;SDS011;3556;53.500;10.176;2024-01-11T06:34:19;84.43;;;20.90;;
7029;SDS011;3556;53.500;10.176;2024-01-11T06:36:44;72.63;;;19.30;;
7029;SDS011;3556;53.500;10.176;2024-01-11T06:39:10;78.57;;;21.10;;
7029;SDS011;3556;53.500;10.176;2024-01-11T06:41:37;75.63;;;19.97;;
7029;SDS011;3556;53.500;10.176;2024-01-11T06:44:03;71.10;;;19.87;;
7029;SDS011;3556;53.500;10.176;2024-01-11T06:46:29;73.90;;;20.30;;
7029;SDS011;3556;53.500;10.176;2024-01-11T06:48:55;76.97;;;21.43;;
7029;SDS011;3556;53.500;10.176;2024-01-11T06:51:21;78.47;;;21.40;;
7029;SDS011;3556;53.500;10.176;2024-01-11T06:53:47;71.80;;;20.23;;
7029;SDS011;3556;53.500;10.176;2024-01-11T06:56:17;75.10;;;19.20;;
7029;SDS011;3556;53.500;10.176;2024-01-11T06:58:44;65.47;;;18.67;;
7029;SDS011;3556;53.500;10.176;2024-01-11T07:01:10;64.10;;;18.53;;
7029;SDS011;3556;53.500;10.176;2024-01-11T07:03:36;65.73;;;18.30;;
7029;SDS011;3556;53.500;10.176;2024-01-11T07:06:02;64.40;;;18.10;;
7029;SDS011;3556;53.500;10.176;2024-01-11T07:08:28;67.80;;;18.87;;
7029;SDS011;3556;53.500;10.176;2024-01-11T07:10:54;65.17;;;18.70;;
7029;SDS011;3556;53.500;10.176;2024-01-11T07:13:20;58.17;;;16.47;;
7029;SDS011;3556;53.500;10.176;2024-01-11T07:15:46;63.30;;;17.87;;
7029;SDS011;3556;53.500;10.176;2024-01-11T07:18:13;62.27;;;17.53;;
7029;SDS011;3556;53.500;10.176;2024-01-11T07:20:38;64.17;;;17.77;;
7029;SDS011;3556;53.500;10.176;2024-01-11T07:23:04;68.57;;;17.57;;
7029;SDS011;3556;53.500;10.176;2024-01-11T07:25:30;63.03;;;16.10;;
7029;SDS011;3556;53.500;10.176;2024-01-11T07:27:55;65.33;;;17.43;;
7029;SDS011;3556;53.500;10.176;2024-01-11T07:30:21;60.60;;;16.67;;
7029;SDS011;3556;53.500;10.176;2024-01-11T07:32:46;58.97;;;16.10;;
7029;SDS011;3556;53.500;10.176;2024-01-11T07:35:13;66.87;;;17.07;;
7029;SDS011;3556;53.500;10.176;2024-01-11T07:37:39;59.87;;;16.30;;
7029;SDS011;3556;53.500;10.176;2024-01-11T07:40:05;59.60;;;16.13;;
7029;SDS011;3556;53.500;10.176;2024-01-11T07:42:36;52.03;;;13.50;;
7029;SDS011;3556;53.500;10.176;2024-01-11T07:45:06;53.00;;;13.33;;
7029;SDS011;3556;53.500;10.176;2024-01-11T07:47:35;49.50;;;13.30;;
7029;SDS011;3556;53.500;10.176;2024-01-11T07:50:07;51.23;;;12.87;;
7029;SDS011;3556;53.500;10.176;2024-01-11T07:52:34;53.70;;;14.30;;
7029;SDS011;3556;53.500;10.176;2024-01-11T07:55:01;53.80;;;13.63;;
7029;SDS011;3556;53.500;10.176;2024-01-11T07:57:31;49.17;;;13.30;;
7029;SDS011;3556;53.500;10.176;2024-01-11T07:59:58;53.97;;;12.87;;
7029;SDS011;3556;53.500;10.176;2024-01-11T08:02:27;59.20;;;13.80;;
7029;SDS011;3556;53.500;10.176;2024-01-11T08:04:53;58.03;;;15.50;;
7029;SDS011;3556;53.500;10.176;2024-01-11T08:07:19;53.90;;;14.13;;
7029;SDS011;3556;53.500;10.176;2024-01-11T08:09:44;57.47;;;13.37;;
7029;SDS011;3556;53.500;10.176;2024-01-11T08:12:16;48.97;;;13.17;;
7029;SDS011;3556;53.500;10.176;2024-01-11T08:14:42;59.50;;;13.30;;
7029;SDS011;3556;53.500;10.176;2024-01-11T08:17:08;60.90;;;15.10;;
7029;SDS011;3556;53.500;10.176;2024-01-11T08:19:34;58.17;;;14.40;;
7029;SDS011;3556;53.500;10.176;2024-01-11T08:22:00;53.87;;;13.53;;
7029;SDS011;3556;53.500;10.176;2024-01-11T08:24:25;54.33;;;13.93;;
7029;SDS011;3556;53.500;10.176;2024-01-11T08:26:52;47.67;;;13.37;;
7029;SDS011;3556;53.500;10.176;2024-01-11T08:29:17;62.63;;;13.80;;
7029;SDS011;3556;53.500;10.176;2024-01-11T08:31:47;55.20;;;13.50;;
7029;SDS011;3556;53.500;10.176;2024-01-11T08:34:13;82.10;;;12.57;;
7029;SDS011;3556;53.500;10.176;2024-01-11T08:36:38;46.73;;;11.20;;
7029;SDS011;3556;53.500;10.176;2024-01-11T08:39:07;43.80;;;10.70;;
7029;SDS011;3556;53.500;10.176;2024-01-11T08:41:36;48.57;;;11.73;;
7029;SDS011;3556;53.500;10.176;2024-01-11T08:44:02;44.10;;;12.03;;
7029;SDS011;3556;53.500;10.176;2024-01-11T08:46:30;53.00;;;11.63;;
7029;SDS011;3556;53.500;10.176;2024-01-11T08:48:58;42.00;;;10.80;;
7029;SDS011;3556;53.500;10.176;2024-01-11T08:51:24;38.57;;;10.60;;
7029;SDS011;3556;53.500;10.176;2024-01-11T08:53:50;47.73;;;11.17;;
7029;SDS011;3556;53.500;10.176;2024-01-11T08:56:18;44.20;;;10.77;;
7029;SDS011;3556;53.500;10.176;2024-01-11T08:58:44;36.73;;;10.63;;
7029;SDS011;3556;53.500;10.176;2024-01-11T09:01:10;44.87;;;11.97;;
7029;SDS011;3556;53.500;10.176;2024-01-11T09:03:36;42.80;;;10.70;;
7029;SDS011;3556;53.500;10.176;2024-01-11T09:06:02;50.60;;;10.57;;
7029;SDS011;3556;53.500;10.176;2024-01-11T09:08:28;46.57;;;10.87;;
7029;SDS011;3556;53.500;10.176;2024-01-11T09:10:55;43.93;;;11.67;;
7029;SDS011;3556;53.500;10.176;2024-01-11T09:13:23;46.97;;;10.73;;
7029;SDS011;3556;53.500;10.176;2024-01-11T09:15:48;56.83;;;12.30;;
7029;SDS011;3556;53.500;10.176;2024-01-11T09:18:14;54.17;;;11.40;;
7029;SDS011;3556;53.500;10.176;2024-01-11T09:20:41;49.83;;;11.83;;
7029;SDS011;3556;53.500;10.176;2024-01-11T09:23:06;52.97;;;11.60;;
7029;SDS011;3556;53.500;10.176;2024-01-11T09:25:32;52.33;;;11.70;;
7029;SDS011;3556;53.500;10.176;2024-01-11T09:27:58;56.30;;;12.77;;
7029;SDS011;3556;53.500;10.176;2024-01-11T09:30:24;55.17;;;11.23;;
7029;SDS011;3556;53.500;10.176;2024-01-11T09:32:50;47.80;;;10.77;;
7029;SDS011;3556;53.500;10.176;2024-01-11T09:35:15;56.63;;;12.13;;
7029;SDS011;3556;53.500;10.176;2024-01-11T09:37:41;43.23;;;11.63;;
7029;SDS011;3556;53.500;10.176;2024-01-11T09:40:08;62.70;;;13.03;;
7029;SDS011;3556;53.500;10.176;2024-01-11T09:42:36;47.00;;;10.13;;
7029;SDS011;3556;53.500;10.176;2024-01-11T09:45:02;52.17;;;13.07;;
7029;SDS011;3556;53.500;10.176;2024-01-11T09:47:33;52.70;;;11.90;;
7029;SDS011;3556;53.500;10.176;2024-01-11T09:50:01;47.10;;;10.93;;
7029;SDS011;3556;53.500;10.176;2024-01-11T09:52:28;55.47;;;11.60;;
7029;SDS011;3556;53.500;10.176;2024-01-11T09:54:57;48.60;;;12.00;;
7029;SDS011;3556;53.500;10.176;2024-01-11T09:57:29;46.27;;;11.60;;
7029;SDS011;3556;53.500;10.176;2024-01-11T09:59:56;62.97;;;13.63;;
7029;SDS011;3556;53.500;10.176;2024-01-11T10:02:23;51.53;;;11.83;;
7029;SDS011;3556;53.500;10.176;2024-01-11T10:04:51;34.67;;;10.13;;
7029;SDS011;3556;53.500;10.176;2024-01-11T10:07:18;44.50;;;12.13;;
7029;SDS011;3556;53.500;10.176;2024-01-11T10:09:46;45.53;;;11.10;;
7029;SDS011;3556;53.500;10.176;2024-01-11T10:12:12;41.00;;;11.70;;
7029;SDS011;3556;53.500;10.176;2024-01-11T10:14:39;56.97;;;12.07;;
7029;SDS011;3556;53.500;10.176;2024-01-11T10:17:05;52.10;;;12.13;;
7029;SDS011;3556;53.500;10.176;2024-01-11T10:19:31;48.10;;;10.90;;
7029;SDS011;3556;53.500;10.176;2024-01-11T10:21:57;51.73;;;11.57;;
7029;SDS011;3556;53.500;10.176;2024-01-11T10:24:23;39.00;;;10.83;;
7029;SDS011;3556;53.500;10.176;2024-01-11T10:27:00;52.53;;;11.60;;
7029;SDS011;3556;53.500;10.176;2024-01-11T10:29:32;43.07;;;10.83;;
7029;SDS011;3556;53.500;10.176;2024-01-11T10:31:58;46.50;;;11.70;;
7029;SDS011;3556;53.500;10.176;2024-01-11T10:34:24;38.23;;;10.30;;
7029;SDS011;3556;53.500;10.176;2024-01-11T10:36:50;34.53;;;9.33;;
7029;SDS011;3556;53.500;10.176;2024-01-11T10:39:16;32.50;;;8.20;;
7029;SDS011;3556;53.500;10.176;2024-01-11T10:41:46;35.00;;;9.13;;
7029;SDS011;3556;53.500;10.176;2024-01-11T10:44:17;49.40;;;10.53;;
7029;SDS011;3556;53.500;10.176;2024-01-11T10:46:45;34.53;;;9.40;;
7029;SDS011;3556;53.500;10.176;2024-01-11T10:49:11;32.07;;;8.80;;
7029;SDS011;3556;53.500;10.176;2024-01-11T10:51:43;37.43;;;10.30;;
7029;SDS011;3556;53.500;10.176;2024-01-11T10:54:14;36.73;;;10.17;;
7029;SDS011;3556;53.500;10.176;2024-01-11T10:56:40;34.03;;;9.87;;
7029;SDS011;3556;53.500;10.176;2024-01-11T10:59:09;30.27;;;9.40;;
7029;SDS011;3556;53.500;10.176;2024-01-11T11:01:37;42.33;;;9.77;;
7029;SDS011;3556;53.500;10.176;2024-01-11T11:04:04;40.50;;;11.23;;
7029;SDS011;3556;53.500;10.176;2024-01-11T11:06:32;44.77;;;11.37;;
7029;SDS011;3556;53.500;10.176;2024-01-11T11:09:00;31.37;;;9.90;;
7029;SDS011;3556;53.500;10.176;2024-01-11T11:11:28;43.47;;;11.30;;
7029;SDS011;3556;53.500;10.176;2024-01-11T11:13:56;35.77;;;10.50;;
7029;SDS011;3556;53.500;10.176;2024-01-11T11:16:25;39.70;;;10.30;;
7029;SDS011;3556;53.500;10.176;2024-01-11T11:18:54;31.50;;;10.47;;
7029;SDS011;3556;53.500;10.176;2024-01-11T11:21:21;45.87;;;10.83;;
7029;SDS011;3556;53.500;10.176;2024-01-11T11:23:49;36.43;;;11.13;;
7029;SDS011;3556;53.500;10.176;2024-01-11T11:26:15;38.03;;;11.43;;
7029;SDS011;3556;53.500;10.176;2024-01-11T11:28:42;42.70;;;11.10;;
7029;SDS011;3556;53.500;10.176;2024-01-11T11:31:08;37.00;;;12.13;;
7029;SDS011;3556;53.500;10.176;2024-01-11T11:33:36;41.17;;;11.87;;
7029;SDS011;3556;53.500;10.176;2024-01-11T11:36:02;42.30;;;12.07;;
7029;SDS011;3556;53.500;10.176;2024-01-11T11:38:30;45.87;;;13.20;;
7029;SDS011;3556;53.500;10.176;2024-01-11T11:40:57;58.13;;;15.20;;
7029;SDS011;3556;53.500;10.176;2024-01-11T11:43:24;47.80;;;14.20;;
7029;SDS011;3556;53.500;10.176;2024-01-11T11:45:51;83.57;;;17.50;;
7029;SDS011;3556;53.500;10.176;2024-01-11T11:51:09;59.57;;;16.67;;
7029;SDS011;3556;53.500;10.176;2024-01-11T11:53:40;60.23;;;16.87;;
7029;SDS011;3556;53.500;10.176;2024-01-11T11:56:06;65.77;;;17.40;;
7029;SDS011;3556;53.500;10.176;2024-01-11T11:58:34;61.10;;;16.80;;
7029;SDS011;3556;53.500;10.176;2024-01-11T12:01:00;58.20;;;17.27;;
7029;SDS011;3556;53.500;10.176;2024-01-11T12:03:31;72.60;;;16.60;;
7029;SDS011;3556;53.500;10.176;2024-01-11T12:06:03;72.13;;;17.70;;
7029;SDS011;3556;53.500;10.176;2024-01-11T12:08:33;67.23;;;16.63;;
7029;SDS011;3556;53.500;10.176;2024-01-11T12:10:59;67.83;;;16.57;;
7029;SDS011;3556;53.500;10.176;2024-01-11T12:13:25;62.30;;;18.30;;
7029;SDS011;3556;53.500;10.176;2024-01-11T12:15:51;69.23;;;18.70;;
7029;SDS011;3556;53.500;10.176;2024-01-11T12:18:17;79.07;;;19.63;;
7029;SDS011;3556;53.500;10.176;2024-01-11T12:20:43;74.80;;;21.20;;
7029;SDS011;3556;53.500;10.176;2024-01-11T12:23:09;68.17;;;19.43;;
7029;SDS011;3556;53.500;10.176;2024-01-11T12:25:35;82.37;;;24.60;;
7029;SDS011;3556;53.500;10.176;2024-01-11T12:28:01;71.97;;;20.73;;
7029;SDS011;3556;53.500;10.176;2024-01-11T12:30:27;76.33;;;18.83;;
7029;SDS011;3556;53.500;10.176;2024-01-11T12:32:55;77.50;;;19.20;;
7029;SDS011;3556;53.500;10.176;2024-01-11T12:35:21;67.20;;;17.73;;
7029;SDS011;3556;53.500;10.176;2024-01-11T12:37:54;71.67;;;20.17;;
7029;SDS011;3556;53.500;10.176;2024-01-11T12:40:20;66.53;;;18.93;;
7029;SDS011;3556;53.500;10.176;2024-01-11T12:42:49;68.37;;;19.30;;
7029;SDS011;3556;53.500;10.176;2024-01-11T12:45:15;63.57;;;17.80;;
7029;SDS011;3556;53.500;10.176;2024-01-11T12:47:44;60.67;;;18.33;;
7029;SDS011;3556;53.500;10.176;2024-01-11T12:50:11;72.73;;;17.60;;
7029;SDS011;3556;53.500;10.176;2024-01-11T12:52:39;67.00;;;18.40;;
7029;SDS011;3556;53.500;10.176;2024-01-11T12:55:07;60.07;;;17.93;;
7029;SDS011;3556;53.500;10.176;2024-01-11T12:57:35;65.90;;;18.33;;
7029;SDS011;3556;53.500;10.176;2024-01-11T13:00:10;76.60;;;21.50;;
7029;SDS011;3556;53.500;10.176;2024-01-11T13:02:37;62.30;;;17.20;;
7029;SDS011;3556;53.500;10.176;2024-01-11T13:05:03;78.43;;;18.97;;
7029;SDS011;3556;53.500;10.176;2024-01-11T13:07:30;65.90;;;18.30;;
7029;SDS011;3556;53.500;10.176;2024-01-11T13:09:56;67.93;;;19.40;;
7029;SDS011;3556;53.500;10.176;2024-01-11T13:12:21;64.63;;;16.97;;
7029;SDS011;3556;53.500;10.176;2024-01-11T13:14:47;62.17;;;18.63;;
7029;SDS011;3556;53.500;10.176;2024-01-11T13:17:13;65.63;;;18.60;;
7029;SDS011;3556;53.500;10.176;2024-01-11T13:19:39;67.23;;;18.10;;
7029;SDS011;3556;53.500;10.176;2024-01-11T13:22:04;61.10;;;17.80;;
7029;SDS011;3556;53.500;10.176;2024-01-11T13:24:30;70.33;;;18.40;;
7029;SDS011;3556;53.500;10.176;2024-01-11T13:26:56;61.20;;;17.30;;
7029;SDS011;3556;53.500;10.176;2024-01-11T13:29:21;68.80;;;18.00;;
7029;SDS011;3556;53.500;10.176;2024-01-11T13:31:47;55.00;;;17.67;;
7029;SDS011;3556;53.500;10.176;2024-01-11T13:34:13;63.90;;;17.93;;
7029;SDS011;3556;53.500;10.176;2024-01-11T13:36:38;68.10;;;18.43;;
7029;SDS011;3556;53.500;10.176;2024-01-11T13:39:04;61.37;;;16.83;;
7029;SDS011;3556;53.500;10.176;2024-01-11T13:41:33;61.03;;;18.17;;
7029;SDS011;3556;53.500;10.176;2024-01-11T13:43:58;61.33;;;16.97;;
7029;SDS011;3556;53.500;10.176;2024-01-11T13:46:25;53.67;;;17.40;;
7029;SDS011;3556;53.500;10.176;2024-01-11T13:48:50;61.70;;;17.70;;
7029;SDS011;3556;53.500;10.176;2024-01-11T13:51:16;59.93;;;17.40;;
7029;SDS011;3556;53.500;10.176;2024-01-11T13:53:42;58.97;;;17.30;;
7029;SDS011;3556;53.500;10.176;2024-01-11T13:56:08;65.23;;;18.20;;
7029;SDS011;3556;53.500;10.176;2024-01-11T13:58:33;64.50;;;17.87;;
7029;SDS011;3556;53.500;10.176;2024-01-11T14:00:59;58.07;;;17.93;;
7029;SDS011;3556;53.500;10.176;2024-01-11T14:03:24;68.03;;;16.90;;
7029;SDS011;3556;53.500;10.176;2024-01-11T14:05:50;58.57;;;18.00;;
7029;SDS011;3556;53.500;10.176;2024-01-11T14:08:16;61.57;;;17.37;;
7029;SDS011;3556;53.500;10.176;2024-01-11T14:10:42;63.00;;;16.63;;
7029;SDS011;3556;53.500;10.176;2024-01-11T14:13:07;58.50;;;18.70;;
7029;SDS011;3556;53.500;10.176;2024-01-11T14:15:34;51.63;;;17.10;;
7029;SDS011;3556;53.500;10.176;2024-01-11T14:18:00;54.87;;;16.33;;
7029;SDS011;3556;53.500;10.176;2024-01-11T14:20:26;56.27;;;17.00;;
7029;SDS011;3556;53.500;10.176;2024-01-11T14:22:52;48.80;;;15.80;;
7029;SDS011;3556;53.500;10.176;2024-01-11T14:25:18;51.10;;;16.93;;
7029;SDS011;3556;53.500;10.176;2024-01-11T14:27:45;54.77;;;18.50;;
7029;SDS011;3556;53.500;10.176;2024-01-11T14:30:12;59.53;;;17.37;;
7029;SDS011;3556;53.500;10.176;2024-01-11T14:32:38;52.07;;;15.47;;
7029;SDS011;3556;53.500;10.176;2024-01-11T14:35:06;60.03;;;17.53;;